ATL weather

Public forecast

Using degrees Fahrenheit for public forecast. Weather courtesy of forecast.io.

Current aviation weather report (METAR) for Hartsfield Jackson Atlanta International Airport

Retrieved 2020/08/10 09:52 UTC (48 minutes ago):

KATL 100952Z 29007KT 10SM FEW060 BKN140 BKN180 24/20 A3010 RMK AO2 SLP181 T02390200

Aviation forecast (TAF) for Hartsfield Jackson Atlanta International Airport

Retrieved 2020/08/10 06:51 UTC (4 hours ago):

TAF KATL 100548Z 1006/1112 20006KT P6SM FEW060 SCT100 SCT250 FM101400 29005KT P6SM SCT035 SCT150 SCT250 FM101800 32006KT P6SM VCSH BKN050 PROB30 1019/1023 VRB15G30KT 4SM TSRA BKN025CB FM110200 23005KT P6SM BKN040 FM110500 26004KT P6SM SCT040 BKN200